KAMN/AMN METAR and TAF weather

Enter ICAO airport designator
Station Type Date Time Source
KAMN METAR 2021/07/29 19:20 UTC NOAA

KAMN 291920Z AUTO 35006KT 10SM SCT046 BKN065 OVC080 29/19 A2985 RMK AO2 T02870190


Station Type Date Time Source
KAMN Decoded METAR 2021/07/29 19:20 UTC NOAA

Alma, Gratiot Community Airport, MI, United States (KAMN) 43-19-19N 084-41-16W
Jul 29, 2021 - 03:20 PM EDT / 2021.07.29 1920 UTC
Wind: from the N (350 degrees) at 7 MPH (6 KT):0
Visibility: 10 mile(s):0
Sky conditions: overcast
Temperature: 83.7 F (28.7 C)
Dew Point: 66.2 F (19.0 C)
Relative Humidity: 55%
Pressure (altimeter): 29.85 in. Hg (1010 hPa)
ob: KAMN 291920Z AUTO 35006KT 10SM SCT046 BKN065 OVC080 29/19 A2985 RMK AO2 T02870190
cycle: 19

Station Type Date Time Source
KAMN TAF UTC NOAA

Error!

Example: see airport list